createdAt,value
2019-05-15T00:00:38.655Z,978.68
2019-05-15T00:01:41.086Z,978.63
2019-05-15T00:02:38.843Z,978.60
2019-05-15T00:03:39.159Z,978.67
2019-05-15T00:04:38.369Z,978.61
2019-05-15T00:05:39.036Z,978.55
2019-05-15T00:06:38.959Z,978.63
2019-05-15T00:07:38.814Z,978.63
2019-05-15T00:08:38.612Z,978.59
2019-05-15T00:09:39.259Z,978.65
2019-05-15T00:10:38.893Z,978.55
2019-05-15T00:11:38.782Z,978.54
2019-05-15T00:12:39.205Z,978.57
2019-05-15T00:13:38.651Z,978.53
2019-05-15T00:14:38.730Z,978.51
2019-05-15T00:15:36.530Z,978.48
2019-05-15T00:16:38.657Z,978.57
2019-05-15T00:17:39.061Z,978.54
2019-05-15T00:18:38.788Z,978.49
2019-05-15T00:19:38.844Z,978.55
2019-05-15T00:20:39.114Z,978.48
2019-05-15T00:21:38.306Z,978.56
2019-05-15T00:22:38.723Z,978.53
2019-05-15T00:23:38.671Z,978.51
2019-05-15T00:24:38.162Z,978.49
2019-05-15T00:25:39.060Z,978.49
2019-05-15T00:26:38.376Z,978.47
2019-05-15T00:27:38.684Z,978.53
2019-05-15T00:28:38.647Z,978.54
2019-05-15T00:29:38.383Z,978.48
2019-05-15T00:30:38.675Z,978.51
2019-05-15T00:31:38.681Z,978.46
2019-05-15T00:32:36.310Z,978.38
2019-05-15T00:33:36.295Z,978.48
2019-05-15T00:34:37.890Z,978.42
2019-05-15T00:35:38.981Z,978.39
2019-05-15T00:36:38.304Z,978.40
2019-05-15T00:37:38.457Z,978.41
2019-05-15T00:38:36.230Z,978.39
2019-05-15T00:39:36.220Z,978.32
2019-05-15T00:40:38.829Z,978.37
2019-05-15T00:41:48.363Z,978.37
2019-05-15T00:42:38.357Z,978.33
2019-05-15T00:43:38.502Z,978.31
2019-05-15T00:44:38.539Z,978.34
2019-05-15T00:45:38.342Z,978.31
2019-05-15T00:46:38.287Z,978.25
2019-05-15T00:47:36.117Z,978.26
2019-05-15T00:48:36.102Z,978.25
2019-05-15T00:49:38.093Z,978.26
2019-05-15T00:50:36.076Z,978.22
2019-05-15T00:51:36.065Z,978.19
2019-05-15T00:52:36.052Z,978.18
2019-05-15T00:53:36.035Z,978.18
2019-05-15T00:54:36.026Z,978.15
2019-05-15T00:55:38.015Z,978.11
2019-05-15T00:56:35.998Z,978.05
2019-05-15T00:57:35.987Z,978.12
2019-05-15T00:58:35.973Z,978.11
2019-05-15T00:59:35.962Z,978.05
2019-05-15T01:00:38.046Z,978.01
2019-05-15T01:01:38.025Z,978.06
2019-05-15T01:02:35.920Z,978.05
2019-05-15T01:03:35.906Z,978.01
2019-05-15T01:04:35.895Z,977.98
2019-05-15T01:05:35.883Z,978.03
2019-05-15T01:06:35.868Z,978.03
2019-05-15T01:07:35.855Z,977.98
2019-05-15T01:08:35.843Z,978.01
2019-05-15T01:09:35.828Z,977.96
2019-05-15T01:10:38.316Z,978.03
2019-05-15T01:11:37.965Z,977.95
2019-05-15T01:12:37.959Z,977.93
2019-05-15T01:13:35.776Z,977.92
2019-05-15T01:14:35.764Z,977.96
2019-05-15T01:15:35.750Z,977.92
2019-05-15T01:16:38.118Z,977.88
2019-05-15T01:17:38.698Z,977.91
2019-05-15T01:18:35.711Z,977.91
2019-05-15T01:19:37.826Z,977.88
2019-05-15T01:20:35.687Z,977.84
2019-05-15T01:21:35.669Z,977.85
2019-05-15T01:22:35.661Z,977.85
2019-05-15T01:23:35.653Z,977.78
2019-05-15T01:24:35.635Z,977.78
2019-05-15T01:25:35.620Z,977.81
2019-05-15T01:26:35.606Z,977.83
2019-05-15T01:27:35.596Z,977.79
2019-05-15T01:28:35.581Z,977.79
2019-05-15T01:29:41.922Z,977.78
2019-05-15T01:30:35.553Z,977.74
2019-05-15T01:31:37.886Z,977.75
2019-05-15T01:32:35.525Z,977.73
2019-05-15T01:33:35.515Z,977.76
2019-05-15T01:34:35.504Z,977.73
2019-05-15T01:35:35.488Z,977.73
2019-05-15T01:36:38.075Z,977.68
2019-05-15T01:37:35.458Z,977.72
2019-05-15T01:38:35.447Z,977.69
2019-05-15T01:39:35.433Z,977.71
2019-05-15T01:40:35.422Z,977.68
2019-05-15T01:41:35.413Z,977.65
2019-05-15T01:42:35.399Z,977.70
2019-05-15T01:43:35.383Z,977.71
2019-05-15T01:44:35.371Z,977.67
2019-05-15T01:45:35.356Z,977.63
2019-05-15T01:46:35.342Z,977.63
2019-05-15T01:47:35.330Z,977.68
2019-05-15T01:48:35.317Z,977.67
2019-05-15T01:49:35.302Z,977.62
2019-05-15T01:50:35.292Z,977.64
2019-05-15T01:51:35.277Z,977.60
2019-05-15T01:52:35.265Z,977.59
2019-05-15T01:53:35.251Z,977.52
2019-05-15T01:54:35.242Z,977.55
2019-05-15T01:55:35.227Z,977.57
2019-05-15T01:56:35.213Z,977.60
2019-05-15T01:57:35.203Z,977.60
2019-05-15T01:58:35.189Z,977.55
2019-05-15T01:59:35.174Z,977.54
2019-05-15T02:00:35.170Z,977.59
2019-05-15T02:01:35.150Z,977.58
2019-05-15T02:02:35.140Z,977.58
2019-05-15T02:03:35.124Z,977.57
2019-05-15T02:04:35.110Z,977.54
2019-05-15T02:05:35.097Z,977.59
2019-05-15T02:06:35.086Z,977.60
2019-05-15T02:07:35.070Z,977.60
2019-05-15T02:08:35.057Z,977.57
2019-05-15T02:09:35.049Z,977.58
2019-05-15T02:10:35.034Z,977.56
2019-05-15T02:11:35.019Z,977.58
2019-05-15T02:12:35.011Z,977.55
2019-05-15T02:13:34.993Z,977.50
2019-05-15T02:14:34.982Z,977.52
2019-05-15T02:15:34.969Z,977.54
2019-05-15T02:16:34.956Z,977.58
2019-05-15T02:17:34.942Z,977.49
2019-05-15T02:18:34.930Z,977.41
2019-05-15T02:19:34.923Z,977.45
2019-05-15T02:20:34.905Z,977.50
2019-05-15T02:21:34.893Z,977.49
2019-05-15T02:22:34.878Z,977.43
2019-05-15T02:23:34.865Z,977.50
2019-05-15T02:24:34.851Z,977.41
2019-05-15T02:25:34.839Z,977.41
2019-05-15T02:26:34.826Z,977.38
2019-05-15T02:27:34.817Z,977.43
2019-05-15T02:28:34.799Z,977.45
2019-05-15T02:29:34.788Z,977.42
2019-05-15T02:30:34.789Z,977.37
2019-05-15T02:31:34.761Z,977.37
2019-05-15T02:32:34.750Z,977.37
2019-05-15T02:33:34.736Z,977.34
2019-05-15T02:34:34.723Z,977.31
2019-05-15T02:35:34.707Z,977.34
2019-05-15T02:36:34.699Z,977.35
2019-05-15T02:37:34.683Z,977.28
2019-05-15T02:38:34.674Z,977.36
2019-05-15T02:39:34.658Z,977.34
2019-05-15T02:40:34.643Z,977.32
2019-05-15T02:41:34.637Z,977.32
2019-05-15T02:42:34.627Z,977.33
2019-05-15T02:43:34.611Z,977.30
2019-05-15T02:44:34.593Z,977.33
2019-05-15T02:45:37.756Z,977.33
2019-05-15T02:46:34.565Z,977.28
2019-05-15T02:47:34.555Z,977.28
2019-05-15T02:48:34.540Z,977.23
2019-05-15T02:49:34.531Z,977.23
2019-05-15T02:50:34.513Z,977.25
2019-05-15T02:51:34.502Z,977.19
2019-05-15T02:52:34.490Z,977.21
2019-05-15T02:53:34.472Z,977.20
2019-05-15T02:54:34.460Z,977.19
2019-05-15T02:55:34.445Z,977.14
2019-05-15T02:56:34.437Z,977.13
2019-05-15T02:57:34.437Z,977.13
2019-05-15T02:58:34.414Z,977.11
2019-05-15T02:59:34.392Z,977.11
2019-05-15T03:00:44.004Z,977.09
2019-05-15T03:01:34.365Z,977.09
2019-05-15T03:02:34.353Z,977.10
2019-05-15T03:03:34.350Z,977.03
2019-05-15T03:04:34.328Z,976.99
2019-05-15T03:05:34.349Z,977.05
2019-05-15T03:06:34.305Z,977.04
2019-05-15T03:07:34.285Z,977.05
2019-05-15T03:08:34.275Z,976.99
2019-05-15T03:09:34.273Z,977.02
2019-05-15T03:10:34.250Z,977.02
2019-05-15T03:11:34.235Z,976.97
2019-05-15T03:12:34.225Z,977.01
2019-05-15T03:13:34.205Z,976.98
2019-05-15T03:14:34.196Z,976.96
2019-05-15T03:15:34.181Z,977.04
2019-05-15T03:16:34.167Z,977.04
2019-05-15T03:17:34.155Z,976.99
2019-05-15T03:18:34.140Z,976.94
2019-05-15T03:19:34.130Z,976.95
2019-05-15T03:20:34.129Z,976.95
2019-05-15T03:21:34.103Z,976.95
2019-05-15T03:22:34.086Z,976.99
2019-05-15T03:23:34.073Z,976.98
2019-05-15T03:24:34.060Z,977.00
2019-05-15T03:25:34.047Z,976.98
2019-05-15T03:26:34.035Z,977.02
2019-05-15T03:27:34.886Z,976.97
2019-05-15T03:28:34.008Z,976.93
2019-05-15T03:29:33.999Z,977.01
2019-05-15T03:31:02.688Z,976.92
2019-05-15T03:31:48.832Z,976.92
2019-05-15T03:32:42.497Z,976.89
2019-05-15T03:33:37.075Z,976.90
2019-05-15T03:34:38.514Z,976.88
2019-05-15T03:35:33.934Z,976.88
2019-05-15T03:36:33.900Z,976.90
2019-05-15T03:37:34.484Z,976.90
2019-05-15T03:38:33.879Z,976.92
2019-05-15T03:39:33.861Z,976.91
2019-05-15T03:40:33.847Z,976.89
2019-05-15T03:41:33.831Z,976.88
2019-05-15T03:42:33.818Z,976.85
2019-05-15T03:43:33.805Z,976.88
2019-05-15T03:44:33.788Z,976.86
2019-05-15T03:45:33.776Z,976.90
2019-05-15T03:46:33.768Z,976.86
2019-05-15T03:47:33.752Z,976.89
2019-05-15T03:48:33.736Z,976.91
2019-05-15T03:49:33.724Z,976.86
2019-05-15T03:50:33.709Z,976.87
2019-05-15T03:51:33.694Z,976.85
2019-05-15T03:52:33.683Z,976.86
2019-05-15T03:53:33.668Z,976.85
2019-05-15T03:54:33.658Z,976.90
2019-05-15T03:55:33.644Z,976.83
2019-05-15T03:56:33.629Z,976.80
2019-05-15T03:57:33.631Z,976.82
2019-05-15T03:58:33.607Z,976.85
2019-05-15T03:59:33.588Z,976.84
2019-05-15T04:00:33.577Z,976.84
2019-05-15T04:01:42.922Z,976.86
2019-05-15T04:02:33.557Z,976.80
2019-05-15T04:03:33.552Z,976.79
2019-05-15T04:04:33.525Z,976.86
2019-05-15T04:05:33.531Z,976.82
2019-05-15T04:06:33.506Z,976.83
2019-05-15T04:07:33.481Z,976.86
2019-05-15T04:08:33.474Z,976.81
2019-05-15T04:09:33.456Z,976.79
2019-05-15T04:10:33.445Z,976.83
2019-05-15T04:11:33.444Z,976.83
2019-05-15T04:12:33.418Z,976.80
2019-05-15T04:13:33.415Z,976.86
2019-05-15T04:14:33.390Z,976.84
2019-05-15T04:15:33.381Z,976.78
2019-05-15T04:16:33.376Z,976.79
2019-05-15T04:17:33.350Z,976.76
2019-05-15T04:18:33.337Z,976.79
2019-05-15T04:19:33.325Z,976.76
2019-05-15T04:20:33.355Z,976.73
2019-05-15T04:21:33.326Z,976.71
2019-05-15T04:22:33.285Z,976.73
2019-05-15T04:23:33.304Z,976.68
2019-05-15T04:24:33.279Z,976.69
2019-05-15T04:25:33.262Z,976.68
2019-05-15T04:26:33.309Z,976.68
2019-05-15T04:27:33.234Z,976.72
2019-05-15T04:28:33.211Z,976.73
2019-05-15T04:29:33.191Z,976.72
2019-05-15T04:30:33.180Z,976.76
2019-05-15T04:31:50.352Z,976.69
2019-05-15T04:32:33.152Z,976.64
2019-05-15T04:33:33.140Z,976.67
2019-05-15T04:34:33.139Z,976.67
2019-05-15T04:35:33.114Z,976.62
2019-05-15T04:36:33.102Z,976.64
2019-05-15T04:37:33.087Z,976.68
2019-05-15T04:38:33.078Z,976.69
2019-05-15T04:39:33.095Z,976.65
2019-05-15T04:40:33.047Z,976.65
2019-05-15T04:41:33.032Z,976.64
2019-05-15T04:42:33.028Z,976.62
2019-05-15T04:43:41.298Z,976.58
2019-05-15T04:44:32.998Z,976.63
2019-05-15T04:45:35.179Z,976.61
2019-05-15T04:46:32.968Z,976.63
2019-05-15T04:47:32.960Z,976.57
2019-05-15T04:48:32.945Z,976.61
2019-05-15T04:49:32.928Z,976.65
2019-05-15T04:50:32.912Z,976.66
2019-05-15T04:51:32.901Z,976.66
2019-05-15T04:52:32.888Z,976.62
2019-05-15T04:53:33.504Z,976.64
2019-05-15T04:54:32.860Z,976.63
2019-05-15T04:55:32.847Z,976.69
2019-05-15T04:56:32.833Z,976.65
2019-05-15T04:57:34.314Z,976.72
2019-05-15T04:58:32.805Z,976.65
2019-05-15T04:59:32.794Z,976.68
2019-05-15T05:00:32.778Z,976.69
2019-05-15T05:01:32.769Z,976.69
2019-05-15T05:02:32.756Z,976.69
2019-05-15T05:03:34.547Z,976.73
2019-05-15T05:04:32.728Z,976.73
2019-05-15T05:05:32.712Z,976.72
2019-05-15T05:06:32.696Z,976.71
2019-05-15T05:07:32.692Z,976.75
2019-05-15T05:08:32.675Z,976.74
2019-05-15T05:09:32.657Z,976.70
2019-05-15T05:10:32.648Z,976.69
2019-05-15T05:11:32.631Z,976.73
2019-05-15T05:12:32.620Z,976.69
2019-05-15T05:13:32.604Z,976.67
2019-05-15T05:14:32.592Z,976.66
2019-05-15T05:15:32.579Z,976.69
2019-05-15T05:16:32.563Z,976.72
2019-05-15T05:17:32.553Z,976.71
2019-05-15T05:18:32.538Z,976.81
2019-05-15T05:19:32.524Z,976.69
2019-05-15T05:20:32.513Z,976.79
2019-05-15T05:21:32.497Z,976.73
2019-05-15T05:22:32.505Z,976.74
2019-05-15T05:23:32.475Z,976.76
2019-05-15T05:24:32.460Z,976.92
2019-05-15T05:25:32.447Z,976.78
2019-05-15T05:26:32.432Z,976.79
2019-05-15T05:27:32.415Z,976.73
2019-05-15T05:28:32.404Z,976.71
2019-05-15T05:29:32.389Z,976.78
2019-05-15T05:30:32.379Z,976.77
2019-05-15T05:31:32.372Z,976.85
2019-05-15T05:32:35.278Z,976.80
2019-05-15T05:33:32.339Z,976.76
2019-05-15T05:34:32.326Z,976.77
2019-05-15T05:35:32.311Z,976.75
2019-05-15T05:36:32.299Z,976.72
2019-05-15T05:37:32.289Z,976.76
2019-05-15T05:38:32.272Z,976.83
2019-05-15T05:39:32.259Z,976.74
2019-05-15T05:40:32.248Z,976.77
2019-05-15T05:41:32.237Z,976.85
2019-05-15T05:42:32.219Z,976.72
2019-05-15T05:43:32.207Z,976.80
2019-05-15T05:44:32.192Z,976.78
2019-05-15T05:45:32.178Z,976.74
2019-05-15T05:46:32.168Z,976.77
2019-05-15T05:47:32.155Z,976.77
2019-05-15T05:48:32.142Z,976.79
2019-05-15T05:49:32.127Z,976.71
2019-05-15T05:50:32.114Z,976.70
2019-05-15T05:51:32.103Z,976.70
2019-05-15T05:52:32.088Z,976.74
2019-05-15T05:53:32.075Z,976.71
2019-05-15T05:54:32.063Z,976.74
2019-05-15T05:55:32.056Z,976.80
2019-05-15T05:56:32.036Z,976.75
2019-05-15T05:57:32.022Z,976.82
2019-05-15T05:58:32.011Z,976.82
2019-05-15T05:59:31.997Z,976.77
2019-05-15T06:00:31.987Z,976.79
2019-05-15T06:01:31.971Z,976.75
2019-05-15T06:02:43.792Z,976.77
2019-05-15T06:03:31.950Z,976.80
2019-05-15T06:04:31.933Z,976.79
2019-05-15T06:05:31.918Z,976.75
2019-05-15T06:06:31.908Z,976.87
2019-05-15T06:07:31.891Z,976.77
2019-05-15T06:08:31.878Z,976.70
2019-05-15T06:09:31.865Z,976.73
2019-05-15T06:10:31.855Z,976.73
2019-05-15T06:11:31.839Z,976.77
2019-05-15T06:12:31.829Z,976.67
2019-05-15T06:13:31.813Z,976.71
2019-05-15T06:14:31.802Z,976.67
2019-05-15T06:15:31.788Z,976.74
2019-05-15T06:16:31.779Z,976.68
2019-05-15T06:17:31.771Z,976.67
2019-05-15T06:18:31.757Z,976.70
2019-05-15T06:19:31.745Z,976.69
2019-05-15T06:20:31.725Z,976.76
2019-05-15T06:21:31.711Z,976.70
2019-05-15T06:22:31.698Z,976.71
2019-05-15T06:23:34.917Z,976.74
2019-05-15T06:24:31.675Z,976.72
2019-05-15T06:25:31.665Z,976.77
2019-05-15T06:26:31.647Z,976.73
2019-05-15T06:27:31.638Z,976.70
2019-05-15T06:28:31.631Z,976.69
2019-05-15T06:29:31.610Z,976.73
2019-05-15T06:30:31.595Z,976.70
2019-05-15T06:31:31.596Z,976.81
2019-05-15T06:32:31.575Z,976.78
2019-05-15T06:33:31.559Z,976.93
2019-05-15T06:34:31.550Z,976.76
2019-05-15T06:35:31.560Z,976.74
2019-05-15T06:36:31.526Z,976.74
2019-05-15T06:37:31.521Z,976.66
2019-05-15T06:38:31.496Z,976.75
2019-05-15T06:39:31.487Z,976.68
2019-05-15T06:40:31.472Z,976.70
2019-05-15T06:41:33.921Z,976.67
2019-05-15T06:42:31.448Z,976.64
2019-05-15T06:43:31.440Z,976.68
2019-05-15T06:44:31.425Z,976.70
2019-05-15T06:45:31.413Z,976.67
2019-05-15T06:46:31.401Z,976.72
2019-05-15T06:47:31.390Z,976.66
2019-05-15T06:48:31.385Z,976.76
2019-05-15T06:49:31.364Z,976.79
2019-05-15T06:50:31.351Z,976.74
2019-05-15T06:51:31.346Z,976.81
2019-05-15T06:52:31.328Z,976.84
2019-05-15T06:53:31.316Z,976.71
2019-05-15T06:54:31.303Z,976.83
2019-05-15T06:55:31.291Z,976.85
2019-05-15T06:56:31.281Z,976.74
2019-05-15T06:57:31.281Z,976.62
2019-05-15T06:58:31.257Z,976.68
2019-05-15T06:59:31.243Z,976.65
2019-05-15T07:00:31.232Z,976.63
2019-05-15T07:01:31.219Z,976.56
2019-05-15T07:02:31.212Z,976.63
2019-05-15T07:03:31.201Z,976.70
2019-05-15T07:04:31.188Z,976.65
2019-05-15T07:05:31.195Z,976.44
2019-05-15T07:06:31.163Z,976.54
2019-05-15T07:07:31.151Z,976.56
2019-05-15T07:08:31.141Z,976.47
2019-05-15T07:09:31.123Z,976.60
2019-05-15T07:10:31.111Z,976.71
2019-05-15T07:11:31.102Z,976.68
2019-05-15T07:12:31.088Z,976.44
2019-05-15T07:13:31.079Z,976.58
2019-05-15T07:14:31.068Z,976.56
2019-05-15T07:15:31.052Z,976.55
2019-05-15T07:16:31.043Z,976.58
2019-05-15T07:17:31.036Z,976.64
2019-05-15T07:18:31.016Z,976.44
2019-05-15T07:19:31.011Z,976.40
2019-05-15T07:20:31.005Z,976.49
2019-05-15T07:21:30.992Z,976.54
2019-05-15T07:22:30.975Z,976.60
2019-05-15T07:23:30.960Z,976.60
2019-05-15T07:24:30.957Z,976.45
2019-05-15T07:25:30.936Z,976.37
2019-05-15T07:26:30.927Z,976.38
2019-05-15T07:27:30.912Z,976.48
2019-05-15T07:28:30.903Z,976.48
2019-05-15T07:29:30.889Z,976.44
2019-05-15T07:30:30.878Z,976.44
2019-05-15T07:31:30.867Z,976.57
2019-05-15T07:32:30.855Z,976.52
2019-05-15T07:33:39.713Z,976.47
2019-05-15T07:34:30.834Z,976.57
2019-05-15T07:35:30.822Z,976.51
2019-05-15T07:36:30.807Z,976.50
2019-05-15T07:37:30.797Z,976.44
2019-05-15T07:38:30.785Z,976.68
2019-05-15T07:39:30.777Z,976.43
2019-05-15T07:40:30.765Z,976.49
2019-05-15T07:41:30.750Z,976.32
2019-05-15T07:42:30.741Z,976.68
2019-05-15T07:43:30.732Z,976.55
2019-05-15T07:44:30.721Z,976.38
2019-05-15T07:45:30.708Z,976.45
2019-05-15T07:46:30.695Z,976.47
2019-05-15T07:47:30.680Z,976.55
2019-05-15T07:48:30.672Z,976.49
2019-05-15T07:49:30.659Z,976.29
2019-05-15T07:50:30.647Z,976.43
2019-05-15T07:51:30.643Z,976.62
2019-05-15T07:52:30.628Z,976.52
2019-05-15T07:53:30.612Z,976.39
2019-05-15T07:54:30.604Z,976.43
2019-05-15T07:55:30.593Z,976.32
2019-05-15T07:56:30.583Z,976.40
2019-05-15T07:57:30.570Z,976.72
2019-05-15T07:58:30.557Z,976.63
2019-05-15T07:59:30.547Z,976.41
2019-05-15T08:00:30.537Z,976.36
2019-05-15T08:01:30.520Z,976.37
2019-05-15T08:02:30.513Z,976.44
2019-05-15T08:03:30.501Z,976.37
2019-05-15T08:04:33.109Z,976.28
2019-05-15T08:05:30.481Z,976.14
2019-05-15T08:06:30.466Z,976.33
2019-05-15T08:07:30.488Z,976.50
2019-05-15T08:08:30.454Z,976.46
2019-05-15T08:09:30.433Z,976.34
2019-05-15T08:10:30.430Z,976.41
2019-05-15T08:11:30.417Z,976.34
2019-05-15T08:12:30.403Z,976.32
2019-05-15T08:13:30.392Z,976.32
2019-05-15T08:14:30.401Z,976.33
2019-05-15T08:15:30.368Z,976.34
2019-05-15T08:16:30.357Z,976.64
2019-05-15T08:17:30.346Z,976.51
2019-05-15T08:18:30.338Z,976.44
2019-05-15T08:19:30.352Z,976.48
2019-05-15T08:20:30.316Z,976.36
2019-05-15T08:21:30.304Z,976.36
2019-05-15T08:22:30.291Z,976.23
2019-05-15T08:23:30.286Z,976.20
2019-05-15T08:24:30.280Z,976.19
2019-05-15T08:25:35.159Z,976.21
2019-05-15T08:26:30.248Z,976.26
2019-05-15T08:27:30.247Z,976.25
2019-05-15T08:28:30.230Z,976.44
2019-05-15T08:29:30.222Z,976.19
2019-05-15T08:30:30.207Z,976.31
2019-05-15T08:31:30.205Z,976.51
2019-05-15T08:32:30.187Z,976.20
2019-05-15T08:33:30.178Z,976.27
2019-05-15T08:34:30.166Z,976.29
2019-05-15T08:35:30.158Z,976.29
2019-05-15T08:36:31.386Z,976.23
2019-05-15T08:37:30.135Z,976.35
2019-05-15T08:38:30.125Z,976.28
2019-05-15T08:39:30.115Z,976.21
2019-05-15T08:40:30.105Z,976.16
2019-05-15T08:41:30.096Z,976.28
2019-05-15T08:42:32.145Z,976.23
2019-05-15T08:43:31.422Z,976.19
2019-05-15T08:44:30.061Z,976.20
2019-05-15T08:45:30.055Z,976.27
2019-05-15T08:46:30.050Z,976.25
2019-05-15T08:47:30.053Z,976.26
2019-05-15T08:48:32.613Z,976.39
2019-05-15T08:49:30.014Z,976.26
2019-05-15T08:50:30.002Z,976.53
2019-05-15T08:51:29.992Z,976.33
2019-05-15T08:52:29.981Z,976.22
2019-05-15T08:53:29.973Z,976.35
2019-05-15T08:54:29.962Z,976.32
2019-05-15T08:55:29.953Z,976.50
2019-05-15T08:56:29.945Z,976.34
2019-05-15T08:57:29.935Z,976.26
2019-05-15T08:58:29.923Z,976.10
2019-05-15T08:59:29.914Z,976.19
2019-05-15T09:00:29.902Z,976.19
2019-05-15T09:01:29.891Z,976.47
2019-05-15T09:02:29.881Z,976.33
2019-05-15T09:03:29.870Z,976.29
2019-05-15T09:04:34.504Z,976.36
2019-05-15T09:05:29.856Z,976.21
2019-05-15T09:06:29.842Z,976.36
2019-05-15T09:07:29.829Z,976.25
2019-05-15T09:08:29.819Z,976.26
2019-05-15T09:09:29.807Z,976.39
2019-05-15T09:10:29.800Z,976.38
2019-05-15T09:11:29.789Z,976.31
2019-05-15T09:12:29.777Z,976.43
2019-05-15T09:13:29.769Z,976.26
2019-05-15T09:14:29.758Z,976.12
2019-05-15T09:15:29.748Z,976.30
2019-05-15T09:16:29.739Z,976.24
2019-05-15T09:17:29.729Z,976.35
2019-05-15T09:18:29.724Z,976.22
2019-05-15T09:19:29.706Z,976.33
2019-05-15T09:20:29.701Z,976.28
2019-05-15T09:21:29.687Z,976.57
2019-05-15T09:22:29.688Z,976.44
2019-05-15T09:23:29.671Z,976.12
2019-05-15T09:24:29.658Z,976.18
2019-05-15T09:25:29.646Z,976.23
2019-05-15T09:26:29.640Z,976.20
2019-05-15T09:27:29.629Z,976.25
2019-05-15T09:28:29.872Z,976.20
2019-05-15T09:29:29.611Z,976.26
2019-05-15T09:30:29.597Z,976.04
2019-05-15T09:31:29.587Z,976.11
2019-05-15T09:32:29.576Z,976.11
2019-05-15T09:33:29.589Z,976.03
2019-05-15T09:34:46.398Z,976.02
2019-05-15T09:35:29.548Z,976.01
2019-05-15T09:36:29.539Z,975.99
2019-05-15T09:37:29.525Z,976.01
2019-05-15T09:38:29.531Z,976.12
2019-05-15T09:39:29.507Z,975.99
2019-05-15T09:40:42.541Z,976.03
2019-05-15T09:41:29.486Z,976.29
2019-05-15T09:42:29.477Z,975.99
2019-05-15T09:43:29.467Z,976.09
2019-05-15T09:44:29.459Z,976.32
2019-05-15T09:45:29.444Z,976.05
2019-05-15T09:46:29.441Z,976.04
2019-05-15T09:47:29.802Z,975.91
2019-05-15T09:48:29.419Z,975.77
2019-05-15T09:49:29.417Z,975.99
2019-05-15T09:50:29.399Z,975.92
2019-05-15T09:51:29.389Z,975.93
2019-05-15T09:52:30.186Z,975.91
2019-05-15T09:53:29.368Z,976.01
2019-05-15T09:54:29.481Z,976.19
2019-05-15T09:55:29.350Z,976.03
2019-05-15T09:56:29.336Z,975.91
2019-05-15T09:57:30.197Z,975.97
2019-05-15T09:58:30.219Z,976.05
2019-05-15T09:59:29.307Z,975.99
2019-05-15T10:00:29.453Z,975.95
2019-05-15T10:01:29.286Z,976.04
2019-05-15T10:02:29.276Z,975.98
2019-05-15T10:03:29.273Z,975.93
2019-05-15T10:04:29.258Z,975.89
2019-05-15T10:05:29.246Z,975.80
2019-05-15T10:06:29.240Z,975.90
2019-05-15T10:07:29.227Z,975.95
2019-05-15T10:08:29.475Z,976.02
2019-05-15T10:09:29.211Z,975.88
2019-05-15T10:10:29.200Z,975.95
2019-05-15T10:11:29.183Z,976.08
2019-05-15T10:12:34.497Z,976.08
2019-05-15T10:13:29.161Z,975.93
2019-05-15T10:14:29.739Z,975.90
2019-05-15T10:15:29.143Z,975.91
2019-05-15T10:16:29.130Z,976.00
2019-05-15T10:17:29.236Z,975.82
2019-05-15T10:18:29.114Z,975.82
2019-05-15T10:19:29.234Z,975.87
2019-05-15T10:20:29.283Z,975.85
2019-05-15T10:21:32.417Z,975.87
2019-05-15T10:22:29.069Z,975.77
2019-05-15T10:23:29.433Z,975.91
2019-05-15T10:24:29.053Z,975.87
2019-05-15T10:25:29.037Z,975.83
2019-05-15T10:26:29.031Z,976.04
2019-05-15T10:27:29.019Z,975.76
2019-05-15T10:28:29.503Z,975.78
2019-05-15T10:29:28.996Z,975.79
2019-05-15T10:30:29.004Z,975.69
2019-05-15T10:31:28.982Z,975.79
2019-05-15T10:32:29.245Z,975.76
2019-05-15T10:33:29.562Z,975.68
2019-05-15T10:34:29.006Z,975.77
2019-05-15T10:35:31.681Z,975.72
2019-05-15T10:36:28.930Z,975.73
2019-05-15T10:37:28.914Z,975.63
2019-05-15T10:38:28.910Z,975.88
2019-05-15T10:39:28.993Z,975.64
2019-05-15T10:40:29.758Z,975.73
2019-05-15T10:41:28.878Z,975.67
2019-05-15T10:42:29.130Z,975.62
2019-05-15T10:43:28.944Z,975.69
2019-05-15T10:44:28.844Z,975.62
2019-05-15T10:45:29.616Z,975.69
2019-05-15T10:46:28.824Z,975.60
2019-05-15T10:47:29.412Z,975.61
2019-05-15T10:48:29.466Z,975.69
2019-05-15T10:49:28.794Z,975.56
2019-05-15T10:50:28.784Z,975.58
2019-05-15T10:51:28.841Z,975.53
2019-05-15T10:52:28.800Z,975.61
2019-05-15T10:53:29.665Z,975.65
2019-05-15T10:54:29.377Z,975.51
2019-05-15T10:55:28.944Z,975.55
2019-05-15T10:56:29.275Z,975.48
2019-05-15T10:57:28.717Z,975.59
2019-05-15T10:58:28.794Z,975.48
2019-05-15T10:59:28.699Z,975.57
2019-05-15T11:00:28.773Z,975.59
2019-05-15T11:01:28.679Z,975.67
2019-05-15T11:02:29.094Z,975.54
2019-05-15T11:03:29.770Z,975.61
2019-05-15T11:04:28.940Z,975.57
2019-05-15T11:05:40.706Z,975.49
2019-05-15T11:06:28.904Z,975.60
2019-05-15T11:07:28.623Z,975.62
2019-05-15T11:08:29.135Z,975.54
2019-05-15T11:09:28.797Z,975.60
2019-05-15T11:10:29.063Z,975.39
2019-05-15T11:11:28.583Z,975.34
2019-05-15T11:12:29.246Z,975.44
2019-05-15T11:13:28.959Z,975.60
2019-05-15T11:14:28.799Z,975.47
2019-05-15T11:15:29.117Z,975.54
2019-05-15T11:16:28.536Z,975.45
2019-05-15T11:17:28.677Z,975.37
2019-05-15T11:18:30.846Z,975.37
2019-05-15T11:19:35.684Z,975.28
2019-05-15T11:20:28.497Z,975.38
2019-05-15T11:21:28.490Z,975.55
2019-05-15T11:22:29.899Z,975.57
2019-05-15T11:23:29.266Z,975.57
2019-05-15T11:24:32.271Z,975.58
2019-05-15T11:25:30.139Z,975.55
2019-05-15T11:26:33.090Z,975.57
2019-05-15T11:27:31.365Z,975.49
2019-05-15T11:28:31.522Z,975.51
2019-05-15T11:29:28.413Z,975.42
2019-05-15T11:30:28.404Z,975.41
2019-05-15T11:31:28.791Z,975.54
2019-05-15T11:32:29.394Z,975.56
2019-05-15T11:33:29.202Z,975.63
2019-05-15T11:34:29.037Z,975.58
2019-05-15T11:35:28.589Z,975.42
2019-05-15T11:36:28.939Z,975.43
2019-05-15T11:37:28.454Z,975.47
2019-05-15T11:38:28.955Z,975.40
2019-05-15T11:39:28.914Z,975.44
2019-05-15T11:40:28.510Z,975.44
2019-05-15T11:41:29.460Z,975.48
2019-05-15T11:42:28.954Z,975.39
2019-05-15T11:43:29.129Z,975.53
2019-05-15T11:44:28.443Z,975.38
2019-05-15T11:45:29.037Z,975.51
2019-05-15T11:46:29.128Z,975.40
2019-05-15T11:47:28.250Z,975.58
2019-05-15T11:48:29.922Z,975.57
2019-05-15T11:49:29.045Z,975.43
2019-05-15T11:50:29.287Z,975.46
2019-05-15T11:51:29.070Z,975.34
2019-05-15T11:52:29.396Z,975.34
2019-05-15T11:53:28.503Z,975.38
2019-05-15T11:54:28.434Z,975.40
2019-05-15T11:55:29.163Z,975.44
2019-05-15T11:56:29.619Z,975.35
2019-05-15T11:57:39.108Z,975.28
2019-05-15T11:58:28.325Z,975.31
2019-05-15T11:59:30.057Z,975.27
2019-05-15T12:00:30.316Z,975.16
2019-05-15T12:01:28.758Z,975.22
2019-05-15T12:02:29.322Z,975.28
2019-05-15T12:03:29.142Z,975.27
2019-05-15T12:04:33.750Z,975.19
2019-05-15T12:05:28.775Z,975.15
2019-05-15T12:06:29.289Z,975.14
2019-05-15T12:07:29.002Z,975.21
2019-05-15T12:08:29.360Z,975.22
2019-05-15T12:09:28.325Z,975.32
2019-05-15T12:10:28.908Z,975.25
2019-05-15T12:11:36.255Z,975.24
2019-05-15T12:12:31.798Z,975.16
2019-05-15T12:13:28.105Z,975.32
2019-05-15T12:14:29.643Z,975.34
2019-05-15T12:15:28.103Z,975.12
2019-05-15T12:16:28.993Z,975.31
2019-05-15T12:17:28.572Z,975.17
2019-05-15T12:18:28.619Z,975.29
2019-05-15T12:19:29.229Z,975.15
2019-05-15T12:20:28.581Z,975.10
2019-05-15T12:21:28.568Z,975.12
2019-05-15T12:22:28.978Z,975.15
2019-05-15T12:23:29.094Z,975.12
2019-05-15T12:24:35.038Z,975.19
2019-05-15T12:25:31.434Z,975.21
2019-05-15T12:26:29.178Z,975.18
2019-05-15T12:27:28.370Z,975.21
2019-05-15T12:28:29.573Z,975.11